Terminal Aerodrome Forecast
Issued by NWS Wilmington, OH

Current Version | Previous Version | Text Only | Print | Product List | Glossary Off
Versions: 1 2 3 4 5 6 7 8 9 10 11 12 13 14 15 16 17 18 19

000
FTUS41 KILN 170549
TAFCMH
TAF
KCMH 170549Z 1706/1806 00000KT P6SM OVC022
     FM171400 VRB03KT P6SM BKN250
     FM171600 14006KT P6SM SCT250
     FM180000 15006KT P6SM BKN250
     FM180400 16008KT P6SM VCSH BKN110 WS020/20040KT=

USA.gov is the U.S. government's official web portal to all federal, state and local government web resources and services.